sensor_id;sensor_type;location;lat;lon;timestamp;pressure;altitude;pressure_sealevel;temperature;humidity
79752;BME280;69234;47.446;21.636;2023-10-08T00:00:29;100481.25;;;16.34;62.64
79752;BME280;69234;47.446;21.636;2023-10-08T00:01:20;100478.88;;;16.31;61.86
79752;BME280;69234;47.446;21.636;2023-10-08T00:01:52;100474.13;;;16.33;62.51
79752;BME280;69234;47.446;21.636;2023-10-08T00:02:26;100467.03;;;16.32;62.58
79752;BME280;69234;47.446;21.636;2023-10-08T00:02:57;100473.28;;;16.33;61.92
79752;BME280;69234;47.446;21.636;2023-10-08T00:03:28;100473.28;;;16.33;62.61
79752;BME280;69234;47.446;21.636;2023-10-08T00:04:00;100462.59;;;16.31;62.74
79752;BME280;69234;47.446;21.636;2023-10-08T00:04:34;100467.19;;;16.31;62.99
79752;BME280;69234;47.446;21.636;2023-10-08T00:05:08;100464.66;;;16.29;62.82
79752;BME280;69234;47.446;21.636;2023-10-08T00:05:41;100463.28;;;16.25;61.86
79752;BME280;69234;47.446;21.636;2023-10-08T00:06:12;100466.00;;;16.25;62.35
79752;BME280;69234;47.446;21.636;2023-10-08T00:06:43;100467.00;;;16.24;63.23
79752;BME280;69234;47.446;21.636;2023-10-08T00:07:19;100465.31;;;16.23;62.32
79752;BME280;69234;47.446;21.636;2023-10-08T00:07:51;100466.31;;;16.22;62.99
79752;BME280;69234;47.446;21.636;2023-10-08T00:08:22;100468.19;;;16.22;62.19
79752;BME280;69234;47.446;21.636;2023-10-08T00:08:53;100463.94;;;16.19;63.60
79752;BME280;69234;47.446;21.636;2023-10-08T00:09:30;100459.53;;;16.18;63.22
79752;BME280;69234;47.446;21.636;2023-10-08T00:10:06;100458.84;;;16.16;63.10
79752;BME280;69234;47.446;21.636;2023-10-08T00:10:40;100462.41;;;16.16;62.56
79752;BME280;69234;47.446;21.636;2023-10-08T00:11:12;100459.69;;;16.16;62.48
79752;BME280;69234;47.446;21.636;2023-10-08T00:11:42;100456.13;;;16.16;63.43
79752;BME280;69234;47.446;21.636;2023-10-08T00:12:14;100458.16;;;16.14;62.50
79752;BME280;69234;47.446;21.636;2023-10-08T00:12:47;100452.22;;;16.10;62.82
79752;BME280;69234;47.446;21.636;2023-10-08T00:13:18;100461.69;;;16.06;63.15
79752;BME280;69234;47.446;21.636;2023-10-08T00:13:49;100460.00;;;16.05;63.84
79752;BME280;69234;47.446;21.636;2023-10-08T00:14:20;100454.22;;;16.00;63.97
79752;BME280;69234;47.446;21.636;2023-10-08T00:14:52;100458.47;;;16.03;63.77
79752;BME280;69234;47.446;21.636;2023-10-08T00:15:25;100457.78;;;16.01;63.58
79752;BME280;69234;47.446;21.636;2023-10-08T00:15:56;100454.22;;;16.00;63.02
79752;BME280;69234;47.446;21.636;2023-10-08T00:16:27;100457.94;;;15.99;63.75
79752;BME280;69234;47.446;21.636;2023-10-08T00:16:59;100449.16;;;15.97;64.04
79752;BME280;69234;47.446;21.636;2023-10-08T00:17:30;100454.56;;;15.97;63.45
79752;BME280;69234;47.446;21.636;2023-10-08T00:18:05;100455.88;;;15.93;63.41
79752;BME280;69234;47.446;21.636;2023-10-08T00:18:39;100456.06;;;15.91;64.20
79752;BME280;69234;47.446;21.636;2023-10-08T00:19:19;100457.22;;;15.89;63.60
79752;BME280;69234;47.446;21.636;2023-10-08T00:19:52;100457.41;;;15.87;64.42
79752;BME280;69234;47.446;21.636;2023-10-08T00:20:23;100457.53;;;15.86;64.31
79752;BME280;69234;47.446;21.636;2023-10-08T00:20:59;100457.41;;;15.87;63.67
79752;BME280;69234;47.446;21.636;2023-10-08T00:21:46;100460.44;;;15.84;63.55
79752;BME280;69234;47.446;21.636;2023-10-08T00:22:20;100456.03;;;15.83;63.42
79752;BME280;69234;47.446;21.636;2023-10-08T00:22:51;100454.50;;;15.81;63.53
79752;BME280;69234;47.446;21.636;2023-10-08T00:23:25;100447.53;;;15.78;64.68
79752;BME280;69234;47.446;21.636;2023-10-08T00:23:56;100452.28;;;15.76;64.90
79752;BME280;69234;47.446;21.636;2023-10-08T00:24:30;100453.44;;;15.74;64.99
79752;BME280;69234;47.446;21.636;2023-10-08T00:25:04;100450.03;;;15.72;63.95
79752;BME280;69234;47.446;21.636;2023-10-08T00:25:42;100453.78;;;15.71;64.40
79752;BME280;69234;47.446;21.636;2023-10-08T00:26:14;100448.69;;;15.67;65.50
79752;BME280;69234;47.446;21.636;2023-10-08T00:26:54;100448.84;;;15.66;64.14
79752;BME280;69234;47.446;21.636;2023-10-08T00:27:25;100448.28;;;15.62;64.66
79752;BME280;69234;47.446;21.636;2023-10-08T00:27:56;100452.16;;;15.60;65.61
79752;BME280;69234;47.446;21.636;2023-10-08T00:28:27;100450.47;;;15.59;65.84
79752;BME280;69234;47.446;21.636;2023-10-08T00:29:04;100447.38;;;15.54;66.05
79752;BME280;69234;47.446;21.636;2023-10-08T00:29:48;100450.59;;;15.49;66.04
79752;BME280;69234;47.446;21.636;2023-10-08T00:30:19;100443.63;;;15.46;65.51
79752;BME280;69234;47.446;21.636;2023-10-08T00:30:50;100438.41;;;15.45;66.03
79752;BME280;69234;47.446;21.636;2023-10-08T00:31:24;100443.81;;;15.45;64.92
79752;BME280;69234;47.446;21.636;2023-10-08T00:31:56;100440.56;;;15.41;66.15
79752;BME280;69234;47.446;21.636;2023-10-08T00:32:27;100437.88;;;15.41;66.00
79752;BME280;69234;47.446;21.636;2023-10-08T00:32:58;100436.16;;;15.40;65.61
79752;BME280;69234;47.446;21.636;2023-10-08T00:33:29;100431.94;;;15.38;65.67
79752;BME280;69234;47.446;21.636;2023-10-08T00:34:00;100432.78;;;15.38;66.05
79752;BME280;69234;47.446;21.636;2023-10-08T00:34:35;100428.34;;;15.37;65.91
79752;BME280;69234;47.446;21.636;2023-10-08T00:35:12;100430.38;;;15.35;65.92
79752;BME280;69234;47.446;21.636;2023-10-08T00:35:44;100417.16;;;15.32;66.17
79752;BME280;69234;47.446;21.636;2023-10-08T00:36:15;100424.25;;;15.33;65.33
79752;BME280;69234;47.446;21.636;2023-10-08T00:36:52;100428.00;;;15.32;65.27
79752;BME280;69234;47.446;21.636;2023-10-08T00:37:23;100426.31;;;15.31;65.26
79752;BME280;69234;47.446;21.636;2023-10-08T00:37:57;100431.72;;;15.31;65.19
79752;BME280;69234;47.446;21.636;2023-10-08T00:38:31;100436.59;;;15.28;66.08
79752;BME280;69234;47.446;21.636;2023-10-08T00:39:07;100434.75;;;15.28;66.04
79752;BME280;69234;47.446;21.636;2023-10-08T00:39:45;100435.72;;;15.27;65.38
79752;BME280;69234;47.446;21.636;2023-10-08T00:40:16;100430.66;;;15.24;65.45
79752;BME280;69234;47.446;21.636;2023-10-08T00:40:52;100431.66;;;15.23;65.33
79752;BME280;69234;47.446;21.636;2023-10-08T00:41:26;100425.91;;;15.26;65.43
79752;BME280;69234;47.446;21.636;2023-10-08T00:42:04;100432.16;;;15.27;64.77
79752;BME280;69234;47.446;21.636;2023-10-08T00:42:37;100434.03;;;15.26;65.81
79752;BME280;69234;47.446;21.636;2023-10-08T00:43:08;100431.00;;;15.29;65.10
79752;BME280;69234;47.446;21.636;2023-10-08T00:43:40;100432.88;;;15.29;65.27
79752;BME280;69234;47.446;21.636;2023-10-08T00:44:14;100430.69;;;15.32;64.06
79752;BME280;69234;47.446;21.636;2023-10-08T00:44:47;100437.66;;;15.35;64.90
79752;BME280;69234;47.446;21.636;2023-10-08T00:45:18;100442.19;;;15.34;63.98
79752;BME280;69234;47.446;21.636;2023-10-08T00:45:50;100436.78;;;15.34;64.96
79752;BME280;69234;47.446;21.636;2023-10-08T00:46:21;100440.19;;;15.36;64.74
79752;BME280;69234;47.446;21.636;2023-10-08T00:47:01;100438.72;;;15.42;64.21
79752;BME280;69234;47.446;21.636;2023-10-08T00:47:32;100439.56;;;15.42;63.37
79752;BME280;69234;47.446;21.636;2023-10-08T00:48:11;100434.97;;;15.43;63.68
79752;BME280;69234;47.446;21.636;2023-10-08T00:48:53;100429.03;;;15.39;63.86
79752;BME280;69234;47.446;21.636;2023-10-08T00:49:28;100430.41;;;15.43;63.64
79752;BME280;69234;47.446;21.636;2023-10-08T00:50:12;100433.13;;;15.43;63.73
79752;BME280;69234;47.446;21.636;2023-10-08T00:51:03;100429.88;;;15.40;63.68
79752;BME280;69234;47.446;21.636;2023-10-08T00:52:04;100423.63;;;15.39;63.64
79752;BME280;69234;47.446;21.636;2023-10-08T00:52:39;100431.78;;;15.48;63.80
79752;BME280;69234;47.446;21.636;2023-10-08T00:53:11;100428.41;;;15.45;63.49
79752;BME280;69234;47.446;21.636;2023-10-08T00:53:56;100430.94;;;15.47;64.15
79752;BME280;69234;47.446;21.636;2023-10-08T00:54:29;100429.91;;;15.48;62.87
79752;BME280;69234;47.446;21.636;2023-10-08T00:55:04;100427.22;;;15.48;62.99
79752;BME280;69234;47.446;21.636;2023-10-08T00:55:35;100432.63;;;15.48;63.66
79752;BME280;69234;47.446;21.636;2023-10-08T00:56:07;100422.69;;;15.49;63.46
79752;BME280;69234;47.446;21.636;2023-10-08T00:56:46;100427.91;;;15.50;63.13
79752;BME280;69234;47.446;21.636;2023-10-08T00:57:25;100414.69;;;15.47;63.45
79752;BME280;69234;47.446;21.636;2023-10-08T00:57:58;100409.13;;;15.49;63.25
79752;BME280;69234;47.446;21.636;2023-10-08T00:58:38;100414.69;;;15.47;63.47
79752;BME280;69234;47.446;21.636;2023-10-08T00:59:11;100413.00;;;15.46;64.03
79752;BME280;69234;47.446;21.636;2023-10-08T00:59:47;100424.69;;;15.46;63.47
79752;BME280;69234;47.446;21.636;2023-10-08T01:00:25;100416.38;;;15.48;63.04
79752;BME280;69234;47.446;21.636;2023-10-08T01:01:04;100412.84;;;15.48;63.45
79752;BME280;69234;47.446;21.636;2023-10-08T01:01:44;100416.25;;;15.50;63.21
79752;BME280;69234;47.446;21.636;2023-10-08T01:02:30;100413.84;;;15.46;62.58
79752;BME280;69234;47.446;21.636;2023-10-08T01:03:15;100413.34;;;15.51;62.42
79752;BME280;69234;47.446;21.636;2023-10-08T01:03:46;100404.25;;;15.52;62.25
79752;BME280;69234;47.446;21.636;2023-10-08T01:04:22;100412.38;;;15.52;62.21
79752;BME280;69234;47.446;21.636;2023-10-08T01:04:55;100409.47;;;15.54;62.41
79752;BME280;69234;47.446;21.636;2023-10-08T01:05:26;100413.03;;;15.54;62.38
79752;BME280;69234;47.446;21.636;2023-10-08T01:06:13;100415.28;;;15.59;62.39
79752;BME280;69234;47.446;21.636;2023-10-08T01:06:54;100411.56;;;15.60;62.36
79752;BME280;69234;47.446;21.636;2023-10-08T01:07:29;100425.44;;;15.65;61.44
79752;BME280;69234;47.446;21.636;2023-10-08T01:08:01;100419.06;;;15.66;61.55
79752;BME280;69234;47.446;21.636;2023-10-08T01:08:37;100418.03;;;15.67;62.18
79752;BME280;69234;47.446;21.636;2023-10-08T01:09:08;100418.03;;;15.67;61.92
79752;BME280;69234;47.446;21.636;2023-10-08T01:09:48;100431.25;;;15.70;62.08
79752;BME280;69234;47.446;21.636;2023-10-08T01:10:29;100423.97;;;15.71;61.31
79752;BME280;69234;47.446;21.636;2023-10-08T01:11:22;100426.50;;;15.72;61.43
79752;BME280;69234;47.446;21.636;2023-10-08T01:12:13;100419.41;;;15.71;62.29
79752;BME280;69234;47.446;21.636;2023-10-08T01:12:59;100420.94;;;15.74;61.78
79752;BME280;69234;47.446;21.636;2023-10-08T01:13:38;100416.38;;;15.74;61.09
79752;BME280;69234;47.446;21.636;2023-10-08T01:14:16;100417.06;;;15.76;61.12
79752;BME280;69234;47.446;21.636;2023-10-08T01:14:52;100411.66;;;15.76;61.54
79752;BME280;69234;47.446;21.636;2023-10-08T01:15:27;100408.94;;;15.76;61.63
79752;BME280;69234;47.446;21.636;2023-10-08T01:16:06;100417.75;;;15.78;61.51
79752;BME280;69234;47.446;21.636;2023-10-08T01:16:40;100409.47;;;15.80;60.62
79752;BME280;69234;47.446;21.636;2023-10-08T01:17:16;100402.00;;;15.82;59.98
79752;BME280;69234;47.446;21.636;2023-10-08T01:17:50;100399.47;;;15.80;61.20
79752;BME280;69234;47.446;21.636;2023-10-08T01:18:56;100396.44;;;15.83;61.14
79752;BME280;69234;47.446;21.636;2023-10-08T01:19:27;100393.75;;;15.83;60.28
79752;BME280;69234;47.446;21.636;2023-10-08T01:19:59;100392.72;;;15.84;60.84
79752;BME280;69234;47.446;21.636;2023-10-08T01:20:51;100400.66;;;15.86;60.23
79752;BME280;69234;47.446;21.636;2023-10-08T01:21:29;100401.69;;;15.85;60.00
79752;BME280;69234;47.446;21.636;2023-10-08T01:22:05;100394.06;;;15.88;59.94
79752;BME280;69234;47.446;21.636;2023-10-08T01:22:49;100387.31;;;15.92;60.40
79752;BME280;69234;47.446;21.636;2023-10-08T01:23:21;100378.53;;;15.90;60.26
79752;BME280;69234;47.446;21.636;2023-10-08T01:23:53;100391.88;;;15.92;60.54
79752;BME280;69234;47.446;21.636;2023-10-08T01:24:25;100380.91;;;15.93;59.36
79752;BME280;69234;47.446;21.636;2023-10-08T01:24:58;100380.72;;;15.95;59.63
79752;BME280;69234;47.446;21.636;2023-10-08T01:25:32;100381.56;;;15.96;58.96
79752;BME280;69234;47.446;21.636;2023-10-08T01:26:03;100387.50;;;15.99;59.06
79752;BME280;69234;47.446;21.636;2023-10-08T01:26:43;100384.13;;;16.05;58.77
79752;BME280;69234;47.446;21.636;2023-10-08T01:27:19;100378.53;;;16.07;58.67
79752;BME280;69234;47.446;21.636;2023-10-08T01:27:57;100385.34;;;16.11;59.28
79752;BME280;69234;47.446;21.636;2023-10-08T01:28:32;100382.78;;;16.09;58.61
79752;BME280;69234;47.446;21.636;2023-10-08T01:29:03;100387.19;;;16.10;59.15
79752;BME280;69234;47.446;21.636;2023-10-08T01:29:40;100377.88;;;16.13;58.58
79752;BME280;69234;47.446;21.636;2023-10-08T01:30:14;100377.72;;;16.14;58.13
79752;BME280;69234;47.446;21.636;2023-10-08T01:30:55;100393.66;;;16.17;57.90
79752;BME280;69234;47.446;21.636;2023-10-08T01:31:28;100378.06;;;16.20;57.73
79752;BME280;69234;47.446;21.636;2023-10-08T01:31:59;100385.00;;;16.22;58.63
79752;BME280;69234;47.446;21.636;2023-10-08T01:32:32;100385.69;;;16.24;57.63
79752;BME280;69234;47.446;21.636;2023-10-08T01:33:04;100381.78;;;16.27;57.78
79752;BME280;69234;47.446;21.636;2023-10-08T01:33:35;100375.00;;;16.31;57.89
79752;BME280;69234;47.446;21.636;2023-10-08T01:34:09;100380.28;;;16.32;58.08
79752;BME280;69234;47.446;21.636;2023-10-08T01:34:46;100383.31;;;16.37;58.04
79752;BME280;69234;47.446;21.636;2023-10-08T01:35:17;100375.88;;;16.39;57.39
79752;BME280;69234;47.446;21.636;2023-10-08T01:35:54;100373.81;;;16.41;57.00
79752;BME280;69234;47.446;21.636;2023-10-08T01:36:26;100379.25;;;16.41;57.65
79752;BME280;69234;47.446;21.636;2023-10-08T01:36:57;100375.38;;;16.44;57.42
79752;BME280;69234;47.446;21.636;2023-10-08T01:37:35;100372.31;;;16.47;56.33
79752;BME280;69234;47.446;21.636;2023-10-08T01:38:06;100374.88;;;16.49;57.01
79752;BME280;69234;47.446;21.636;2023-10-08T01:38:39;100373.84;;;16.50;56.91
79752;BME280;69234;47.446;21.636;2023-10-08T01:39:12;100371.97;;;16.50;56.88
79752;BME280;69234;47.446;21.636;2023-10-08T01:39:47;100363.00;;;16.50;56.47
79752;BME280;69234;47.446;21.636;2023-10-08T01:40:21;100370.63;;;16.54;56.78
79752;BME280;69234;47.446;21.636;2023-10-08T01:40:52;100370.63;;;16.54;56.91
79752;BME280;69234;47.446;21.636;2023-10-08T01:41:23;100371.31;;;16.56;56.80
79752;BME280;69234;47.446;21.636;2023-10-08T01:42:00;100367.38;;;16.59;57.30
79752;BME280;69234;47.446;21.636;2023-10-08T01:42:31;100367.38;;;16.59;56.27
79752;BME280;69234;47.446;21.636;2023-10-08T01:43:09;100373.69;;;16.59;57.22
79752;BME280;69234;47.446;21.636;2023-10-08T01:43:48;100367.38;;;16.59;57.09
79752;BME280;69234;47.446;21.636;2023-10-08T01:44:20;100368.78;;;16.63;56.32
79752;BME280;69234;47.446;21.636;2023-10-08T01:44:51;100366.06;;;16.63;57.07
79752;BME280;69234;47.446;21.636;2023-10-08T01:45:25;100366.06;;;16.63;55.88
79752;BME280;69234;47.446;21.636;2023-10-08T01:45:56;100367.75;;;16.64;56.15
79752;BME280;69234;47.446;21.636;2023-10-08T01:46:27;100363.00;;;16.66;55.97
79752;BME280;69234;47.446;21.636;2023-10-08T01:46:58;100355.88;;;16.65;56.63
79752;BME280;69234;47.446;21.636;2023-10-08T01:47:30;100354.88;;;16.66;56.10
79752;BME280;69234;47.446;21.636;2023-10-08T01:48:01;100355.88;;;16.65;56.18
79752;BME280;69234;47.446;21.636;2023-10-08T01:48:32;100355.72;;;16.67;55.78
79752;BME280;69234;47.446;21.636;2023-10-08T01:49:08;100360.13;;;16.68;56.65
79752;BME280;69234;47.446;21.636;2023-10-08T01:49:46;100357.41;;;16.68;56.91
79752;BME280;69234;47.446;21.636;2023-10-08T01:50:17;100359.28;;;16.67;56.26
79752;BME280;69234;47.446;21.636;2023-10-08T01:50:56;100351.78;;;16.69;56.48
79752;BME280;69234;47.446;21.636;2023-10-08T01:51:30;100350.94;;;16.69;56.46
79752;BME280;69234;47.446;21.636;2023-10-08T01:52:15;100356.38;;;16.69;55.92
79752;BME280;69234;47.446;21.636;2023-10-08T01:52:52;100359.94;;;16.69;55.88
79752;BME280;69234;47.446;21.636;2023-10-08T01:53:23;100367.72;;;16.72;56.39
79752;BME280;69234;47.446;21.636;2023-10-08T01:53:55;100367.72;;;16.72;55.59
79752;BME280;69234;47.446;21.636;2023-10-08T01:54:29;100350.47;;;16.73;56.74
79752;BME280;69234;47.446;21.636;2023-10-08T01:55:00;100355.88;;;16.73;56.55
79752;BME280;69234;47.446;21.636;2023-10-08T01:55:33;100351.44;;;16.72;56.75
79752;BME280;69234;47.446;21.636;2023-10-08T01:56:15;100350.78;;;16.70;55.96
79752;BME280;69234;47.446;21.636;2023-10-08T01:56:48;100344.03;;;16.74;55.79
79752;BME280;69234;47.446;21.636;2023-10-08T01:57:20;100341.13;;;16.76;56.46
79752;BME280;69234;47.446;21.636;2023-10-08T01:57:51;100344.03;;;16.74;56.18
79752;BME280;69234;47.446;21.636;2023-10-08T01:58:22;100345.03;;;16.73;55.97
79752;BME280;69234;47.446;21.636;2023-10-08T01:58:53;100348.59;;;16.74;56.59
79752;BME280;69234;47.446;21.636;2023-10-08T01:59:24;100337.59;;;16.75;55.66
79752;BME280;69234;47.446;21.636;2023-10-08T01:59:55;100340.28;;;16.75;55.87
79752;BME280;69234;47.446;21.636;2023-10-08T02:00:26;100333.19;;;16.74;55.85
79752;BME280;69234;47.446;21.636;2023-10-08T02:00:57;100329.28;;;16.77;56.25
79752;BME280;69234;47.446;21.636;2023-10-08T02:01:30;100325.69;;;16.76;56.47
79752;BME280;69234;47.446;21.636;2023-10-08T02:02:01;100339.13;;;16.78;56.02
79752;BME280;69234;47.446;21.636;2023-10-08T02:02:32;100337.44;;;16.77;56.47
79752;BME280;69234;47.446;21.636;2023-10-08T02:03:04;100337.25;;;16.78;55.64
79752;BME280;69234;47.446;21.636;2023-10-08T02:03:39;100328.91;;;16.80;56.69
79752;BME280;69234;47.446;21.636;2023-10-08T02:04:12;100333.50;;;16.79;55.39
79752;BME280;69234;47.446;21.636;2023-10-08T02:04:43;100331.63;;;16.80;56.51
79752;BME280;69234;47.446;21.636;2023-10-08T02:05:14;100331.63;;;16.80;56.35
79752;BME280;69234;47.446;21.636;2023-10-08T02:05:46;100323.50;;;16.80;56.64
79752;BME280;69234;47.446;21.636;2023-10-08T02:06:17;100333.00;;;16.84;56.21
79752;BME280;69234;47.446;21.636;2023-10-08T02:06:48;100332.16;;;16.83;56.59
79752;BME280;69234;47.446;21.636;2023-10-08T02:07:19;100327.72;;;16.82;56.14
79752;BME280;69234;47.446;21.636;2023-10-08T02:07:51;100333.00;;;16.84;55.43
79752;BME280;69234;47.446;21.636;2023-10-08T02:08:25;100320.28;;;16.84;56.20
79752;BME280;69234;47.446;21.636;2023-10-08T02:09:04;100326.38;;;16.86;56.33
79752;BME280;69234;47.446;21.636;2023-10-08T02:09:41;100319.25;;;16.85;55.89
79752;BME280;69234;47.446;21.636;2023-10-08T02:10:13;100315.19;;;16.81;56.09
79752;BME280;69234;47.446;21.636;2023-10-08T02:10:46;100316.88;;;16.82;55.55
79752;BME280;69234;47.446;21.636;2023-10-08T02:11:18;100320.09;;;16.86;56.32
79752;BME280;69234;47.446;21.636;2023-10-08T02:11:50;100322.66;;;16.87;56.01
79752;BME280;69234;47.446;21.636;2023-10-08T02:12:23;100326.03;;;16.90;56.24
79752;BME280;69234;47.446;21.636;2023-10-08T02:12:56;100325.19;;;16.89;55.57
79752;BME280;69234;47.446;21.636;2023-10-08T02:13:27;100331.44;;;16.90;55.92
79752;BME280;69234;47.446;21.636;2023-10-08T02:13:58;100320.59;;;16.90;55.54
79752;BME280;69234;47.446;21.636;2023-10-08T02:14:29;100306.19;;;16.89;56.20
79752;BME280;69234;47.446;21.636;2023-10-08T02:15:03;100314.16;;;16.91;55.48
79752;BME280;69234;47.446;21.636;2023-10-08T02:15:45;100306.38;;;16.87;56.17
79752;BME280;69234;47.446;21.636;2023-10-08T02:16:20;100307.22;;;16.88;55.98
79752;BME280;69234;47.446;21.636;2023-10-08T02:16:53;100311.63;;;16.89;55.83
79752;BME280;69234;47.446;21.636;2023-10-08T02:17:26;100308.06;;;16.88;55.64
79752;BME280;69234;47.446;21.636;2023-10-08T02:17:59;100305.53;;;16.87;55.76
79752;BME280;69234;47.446;21.636;2023-10-08T02:18:29;100293.81;;;16.86;56.05
79752;BME280;69234;47.446;21.636;2023-10-08T02:19:01;100300.09;;;16.87;56.34
79752;BME280;69234;47.446;21.636;2023-10-08T02:19:32;100292.31;;;16.84;55.73
79752;BME280;69234;47.446;21.636;2023-10-08T02:20:06;100300.94;;;16.87;56.29
79752;BME280;69234;47.446;21.636;2023-10-08T02:20:38;100297.38;;;16.87;56.00
79752;BME280;69234;47.446;21.636;2023-10-08T02:21:10;100294.69;;;16.87;55.94
79752;BME280;69234;47.446;21.636;2023-10-08T02:21:41;100304.66;;;16.86;56.15
79752;BME280;69234;47.446;21.636;2023-10-08T02:22:12;100305.69;;;16.85;56.38
79752;BME280;69234;47.446;21.636;2023-10-08T02:22:44;100301.94;;;16.86;55.57
79752;BME280;69234;47.446;21.636;2023-10-08T02:23:15;100302.97;;;16.85;55.80
79752;BME280;69234;47.446;21.636;2023-10-08T02:23:48;100303.81;;;16.86;56.55
79752;BME280;69234;47.446;21.636;2023-10-08T02:24:20;100302.97;;;16.85;55.64
79752;BME280;69234;47.446;21.636;2023-10-08T02:24:52;100312.97;;;16.85;56.02
79752;BME280;69234;47.446;21.636;2023-10-08T02:25:24;100309.25;;;16.86;55.96
79752;BME280;69234;47.446;21.636;2023-10-08T02:25:54;100313.47;;;16.88;55.83
79752;BME280;69234;47.446;21.636;2023-10-08T02:26:26;100310.78;;;16.88;56.15
79752;BME280;69234;47.446;21.636;2023-10-08T02:26:57;100309.09;;;16.87;56.49
79752;BME280;69234;47.446;21.636;2023-10-08T02:27:28;100313.47;;;16.88;56.17
79752;BME280;69234;47.446;21.636;2023-10-08T02:27:59;100315.34;;;16.88;55.92
79752;BME280;69234;47.446;21.636;2023-10-08T02:28:30;100320.78;;;16.88;56.31
79752;BME280;69234;47.446;21.636;2023-10-08T02:29:01;100327.72;;;16.91;55.30
79752;BME280;69234;47.446;21.636;2023-10-08T02:29:33;100313.47;;;16.88;55.58
79752;BME280;69234;47.446;21.636;2023-10-08T02:30:04;100313.13;;;16.92;55.30
79752;BME280;69234;47.446;21.636;2023-10-08T02:30:39;100308.56;;;16.92;54.99
79752;BME280;69234;47.446;21.636;2023-10-08T02:31:10;100312.31;;;16.91;55.54
79752;BME280;69234;47.446;21.636;2023-10-08T02:31:41;100312.31;;;16.91;55.12
79752;BME280;69234;47.446;21.636;2023-10-08T02:32:12;100314.81;;;16.93;56.00
79752;BME280;69234;47.446;21.636;2023-10-08T02:32:43;100315.84;;;16.92;56.05
79752;BME280;69234;47.446;21.636;2023-10-08T02:33:14;100312.09;;;16.93;55.12
79752;BME280;69234;47.446;21.636;2023-10-08T02:33:46;100312.31;;;16.91;55.74
79752;BME280;69234;47.446;21.636;2023-10-08T02:34:17;100304.16;;;16.91;56.04
79752;BME280;69234;47.446;21.636;2023-10-08T02:34:50;100297.00;;;16.90;56.34
79752;BME280;69234;47.446;21.636;2023-10-08T02:35:21;100301.44;;;16.91;55.51
79752;BME280;69234;47.446;21.636;2023-10-08T02:35:53;100290.94;;;16.88;56.09
79752;BME280;69234;47.446;21.636;2023-10-08T02:36:24;100296.03;;;16.91;55.78
79752;BME280;69234;47.446;21.636;2023-10-08T02:36:55;100291.44;;;16.92;55.66
79752;BME280;69234;47.446;21.636;2023-10-08T02:37:27;100292.47;;;16.91;55.61
79752;BME280;69234;47.446;21.636;2023-10-08T02:37:58;100293.13;;;16.93;56.18
79752;BME280;69234;47.446;21.636;2023-10-08T02:38:30;100277.88;;;16.92;55.62
79752;BME280;69234;47.446;21.636;2023-10-08T02:39:08;100279.91;;;16.90;56.55
79752;BME280;69234;47.446;21.636;2023-10-08T02:39:52;100279.75;;;16.91;55.70
79752;BME280;69234;47.446;21.636;2023-10-08T02:40:23;100272.44;;;16.92;56.43
79752;BME280;69234;47.446;21.636;2023-10-08T02:40:57;100285.81;;;16.93;55.33
79752;BME280;69234;47.446;21.636;2023-10-08T02:41:30;100277.03;;;16.91;56.20
79752;BME280;69234;47.446;21.636;2023-10-08T02:42:00;100278.53;;;16.94;56.50
79752;BME280;69234;47.446;21.636;2023-10-08T02:42:32;100279.56;;;16.93;56.06
79752;BME280;69234;47.446;21.636;2023-10-08T02:43:04;100281.06;;;16.95;56.07
79752;BME280;69234;47.446;21.636;2023-10-08T02:43:39;100281.91;;;16.96;55.56
79752;BME280;69234;47.446;21.636;2023-10-08T02:44:14;100280.03;;;16.96;55.31
79752;BME280;69234;47.446;21.636;2023-10-08T02:44:45;100278.19;;;16.97;55.81
79752;BME280;69234;47.446;21.636;2023-10-08T02:45:16;100277.53;;;16.95;55.43
79752;BME280;69234;47.446;21.636;2023-10-08T02:45:49;100278.19;;;16.97;55.02
79752;BME280;69234;47.446;21.636;2023-10-08T02:46:20;100277.00;;;16.99;55.09
79752;BME280;69234;47.446;21.636;2023-10-08T02:46:52;100281.56;;;16.99;55.26
79752;BME280;69234;47.446;21.636;2023-10-08T02:47:23;100274.47;;;16.98;55.99
79752;BME280;69234;47.446;21.636;2023-10-08T02:47:55;100276.34;;;16.97;55.11
79752;BME280;69234;47.446;21.636;2023-10-08T02:48:26;100278.03;;;16.98;55.61
79752;BME280;69234;47.446;21.636;2023-10-08T02:48:57;100280.03;;;16.96;56.23
79752;BME280;69234;47.446;21.636;2023-10-08T02:49:28;100279.88;;;16.98;56.29
79752;BME280;69234;47.446;21.636;2023-10-08T02:50:02;100283.59;;;16.97;56.40
79752;BME280;69234;47.446;21.636;2023-10-08T02:50:41;100280.72;;;16.98;55.72
79752;BME280;69234;47.446;21.636;2023-10-08T02:51:12;100274.47;;;16.98;55.85
79752;BME280;69234;47.446;21.636;2023-10-08T02:51:48;100273.63;;;16.97;55.63
79752;BME280;69234;47.446;21.636;2023-10-08T02:52:21;100271.75;;;16.98;55.47
79752;BME280;69234;47.446;21.636;2023-10-08T02:52:52;100270.03;;;16.97;55.49
79752;BME280;69234;47.446;21.636;2023-10-08T02:53:22;100269.03;;;16.98;55.62
79752;BME280;69234;47.446;21.636;2023-10-08T02:53:56;100265.28;;;16.99;55.36
79752;BME280;69234;47.446;21.636;2023-10-08T02:54:27;100271.75;;;16.98;55.47
79752;BME280;69234;47.446;21.636;2023-10-08T02:55:07;100265.47;;;16.97;55.55
79752;BME280;69234;47.446;21.636;2023-10-08T02:55:49;100270.03;;;16.97;55.31
79752;BME280;69234;47.446;21.636;2023-10-08T02:56:20;100273.63;;;16.97;55.40
79752;BME280;69234;47.446;21.636;2023-10-08T02:56:53;100274.47;;;16.98;55.53